createdAt,value
2017-12-26T00:00:16.917Z,13.20
2017-12-26T00:02:44.411Z,13.30
2017-12-26T00:05:12.022Z,12.17
2017-12-26T00:07:39.501Z,15.10
2017-12-26T00:10:06.996Z,9.30
2017-12-26T00:12:34.474Z,9.60
2017-12-26T00:15:01.954Z,13.77
2017-12-26T00:17:29.637Z,12.00
2017-12-26T00:19:57.920Z,18.20
2017-12-26T00:22:25.378Z,21.47
2017-12-26T00:24:52.863Z,12.70
2017-12-26T00:27:20.401Z,14.13
2017-12-26T00:29:48.650Z,11.17
2017-12-26T00:32:16.150Z,17.23
2017-12-26T00:34:43.658Z,12.90
2017-12-26T00:37:11.147Z,17.53
2017-12-26T00:39:38.622Z,10.40
2017-12-26T00:42:06.868Z,13.37
2017-12-26T00:44:34.360Z,12.67
2017-12-26T00:47:02.632Z,12.10
2017-12-26T00:49:30.884Z,10.13
2017-12-26T00:51:58.389Z,11.73
2017-12-26T00:54:25.943Z,11.97
2017-12-26T00:56:53.530Z,11.40
2017-12-26T00:59:21.016Z,13.37
2017-12-26T01:01:48.529Z,12.80
2017-12-26T01:04:16.058Z,13.73
2017-12-26T01:06:44.298Z,11.50
2017-12-26T01:09:11.777Z,10.10
2017-12-26T01:11:39.267Z,14.90
2017-12-26T01:14:07.511Z,16.40
2017-12-26T01:16:34.992Z,10.37
2017-12-26T01:19:03.264Z,9.70
2017-12-26T01:21:31.492Z,10.07
2017-12-26T01:23:58.986Z,12.53
2017-12-26T01:26:27.235Z,9.80
2017-12-26T01:28:54.738Z,11.50
2017-12-26T01:31:22.990Z,12.13
2017-12-26T01:33:51.978Z,12.37
2017-12-26T01:36:19.486Z,11.13
2017-12-26T01:38:47.097Z,9.97
2017-12-26T01:41:14.583Z,11.97
2017-12-26T01:43:42.817Z,10.10
2017-12-26T01:46:22.301Z,14.40
2017-12-26T01:48:50.564Z,10.97
2017-12-26T01:51:19.539Z,10.07
2017-12-26T01:53:47.000Z,10.07
2017-12-26T01:56:14.502Z,9.73
2017-12-26T01:58:42.722Z,9.00
2017-12-26T02:01:10.261Z,12.13
2017-12-26T02:03:37.726Z,21.83
2017-12-26T02:06:05.227Z,13.67
2017-12-26T02:08:33.560Z,17.23
2017-12-26T02:11:01.038Z,10.33
2017-12-26T02:13:28.551Z,8.63
2017-12-26T02:15:56.030Z,13.27
2017-12-26T02:18:23.601Z,12.73
2017-12-26T02:20:51.068Z,11.63
2017-12-26T02:23:18.579Z,16.40
2017-12-26T02:25:46.810Z,9.70
2017-12-26T02:28:14.299Z,11.90
2017-12-26T02:30:41.777Z,10.63
2017-12-26T02:33:10.044Z,12.47
2017-12-26T02:35:38.289Z,10.50
2017-12-26T02:38:05.812Z,13.80
2017-12-26T02:40:33.296Z,8.23
2017-12-26T02:43:00.782Z,10.70
2017-12-26T02:45:28.304Z,11.03
2017-12-26T02:47:56.192Z,8.17
2017-12-26T02:50:23.706Z,8.60
2017-12-26T02:52:51.175Z,8.17
2017-12-26T02:55:18.744Z,11.27
2017-12-26T02:57:46.256Z,6.87
2017-12-26T03:00:13.783Z,7.03
2017-12-26T03:02:41.254Z,9.53
2017-12-26T03:05:08.724Z,8.63
2017-12-26T03:07:36.200Z,9.40
2017-12-26T03:10:04.442Z,8.40
2017-12-26T03:12:31.931Z,9.57
2017-12-26T03:15:00.166Z,8.67
2017-12-26T03:17:27.708Z,13.33
2017-12-26T03:19:55.174Z,8.83
2017-12-26T03:22:22.679Z,10.00
2017-12-26T03:24:50.134Z,9.07
2017-12-26T03:27:17.601Z,7.97
2017-12-26T03:29:45.849Z,7.87
2017-12-26T03:32:13.319Z,7.50
2017-12-26T03:34:40.808Z,9.40
2017-12-26T03:37:09.057Z,8.73
2017-12-26T03:39:36.543Z,7.23
2017-12-26T03:42:04.774Z,8.43
2017-12-26T03:44:32.251Z,6.13
2017-12-26T03:46:59.727Z,10.77
2017-12-26T03:49:27.961Z,7.20
2017-12-26T03:51:55.466Z,6.77
2017-12-26T03:54:23.713Z,7.23
2017-12-26T03:56:51.176Z,6.90
2017-12-26T03:59:19.461Z,7.60
2017-12-26T04:01:47.704Z,7.10
2017-12-26T04:04:15.170Z,6.30
2017-12-26T04:06:42.645Z,6.93
2017-12-26T04:09:10.134Z,6.93
2017-12-26T04:11:37.599Z,6.20
2017-12-26T04:14:05.103Z,7.57
2017-12-26T04:16:32.579Z,9.00
2017-12-26T04:19:00.083Z,7.00
2017-12-26T04:21:27.556Z,6.70
2017-12-26T04:23:55.074Z,6.93
2017-12-26T04:26:23.301Z,5.80
2017-12-26T04:28:51.020Z,5.37
2017-12-26T04:31:19.277Z,6.27
2017-12-26T04:33:46.747Z,7.43
2017-12-26T04:36:14.990Z,5.20
2017-12-26T04:38:42.458Z,6.57
2017-12-26T04:41:09.934Z,5.80
2017-12-26T04:43:37.431Z,5.90
2017-12-26T04:46:04.955Z,5.97
2017-12-26T04:48:33.188Z,6.53
2017-12-26T04:51:00.690Z,5.77
2017-12-26T04:53:28.919Z,7.23
2017-12-26T04:55:56.401Z,5.90
2017-12-26T04:58:23.866Z,6.40
2017-12-26T05:00:51.346Z,6.10
2017-12-26T05:03:19.586Z,8.13
2017-12-26T05:05:47.072Z,6.57
2017-12-26T05:08:15.401Z,7.10
2017-12-26T05:10:42.881Z,5.43
2017-12-26T05:13:10.365Z,5.93
2017-12-26T05:15:38.818Z,8.03
2017-12-26T05:18:06.289Z,4.50
2017-12-26T05:20:34.684Z,5.57
2017-12-26T05:23:02.940Z,5.67
2017-12-26T05:25:30.424Z,5.17
2017-12-26T05:27:58.441Z,6.77
2017-12-26T05:30:25.930Z,6.10
2017-12-26T05:32:53.428Z,5.80
2017-12-26T05:35:21.658Z,8.40
2017-12-26T05:37:49.162Z,6.93
2017-12-26T05:40:16.695Z,6.40
2017-12-26T05:42:44.172Z,8.10
2017-12-26T05:45:12.422Z,8.77
2017-12-26T05:47:39.883Z,7.50
2017-12-26T05:50:07.404Z,8.47
2017-12-26T05:52:34.990Z,7.90
2017-12-26T05:55:02.502Z,7.80
2017-12-26T05:57:29.998Z,11.67
2017-12-26T05:59:57.470Z,11.07
2017-12-26T06:02:24.953Z,7.90
2017-12-26T06:04:53.190Z,7.67
2017-12-26T06:07:20.896Z,7.87
2017-12-26T06:09:48.449Z,6.20
2017-12-26T06:12:15.942Z,6.83
2017-12-26T06:14:43.444Z,11.90
2017-12-26T06:17:10.938Z,9.30
2017-12-26T06:19:39.414Z,7.27
2017-12-26T06:22:08.902Z,5.37
2017-12-26T06:24:36.638Z,6.90
2017-12-26T06:27:04.296Z,8.70
2017-12-26T06:29:31.784Z,7.53
2017-12-26T06:31:59.287Z,9.97
2017-12-26T06:34:26.820Z,8.83
2017-12-26T06:36:54.706Z,6.30
2017-12-26T06:39:22.951Z,5.83
2017-12-26T06:41:50.413Z,6.80
2017-12-26T06:44:18.662Z,7.77
2017-12-26T06:46:46.274Z,7.20
2017-12-26T06:49:13.833Z,9.23
2017-12-26T06:51:42.160Z,7.60
2017-12-26T06:54:09.650Z,12.33
2017-12-26T06:56:38.092Z,6.60
2017-12-26T06:59:06.911Z,7.40
2017-12-26T07:01:34.375Z,6.50
2017-12-26T07:04:01.874Z,9.23
2017-12-26T07:06:29.472Z,4.50
2017-12-26T07:08:57.599Z,4.57
2017-12-26T07:11:25.984Z,4.50
2017-12-26T07:13:54.308Z,7.10
2017-12-26T07:16:21.812Z,5.20
2017-12-26T07:18:49.529Z,4.50
2017-12-26T07:21:22.918Z,4.60
2017-12-26T07:23:50.432Z,4.90
2017-12-26T07:26:18.778Z,4.50
2017-12-26T07:28:46.328Z,3.63
2017-12-26T07:31:14.268Z,3.40
2017-12-26T07:33:41.980Z,3.60
2017-12-26T07:36:10.272Z,3.87
2017-12-26T07:38:38.598Z,2.83
2017-12-26T07:41:06.158Z,2.73
2017-12-26T07:43:34.018Z,2.90
2017-12-26T07:46:01.577Z,2.33
2017-12-26T07:48:29.089Z,3.37
2017-12-26T07:50:57.005Z,2.40
2017-12-26T07:53:25.601Z,3.03
2017-12-26T07:55:53.123Z,3.20
2017-12-26T07:58:20.762Z,6.20
2017-12-26T08:00:48.476Z,3.50
2017-12-26T08:03:15.998Z,11.13
2017-12-26T08:05:43.474Z,5.10
2017-12-26T08:08:10.951Z,3.07
2017-12-26T08:10:38.412Z,3.17
2017-12-26T08:13:05.890Z,3.70
2017-12-26T08:15:33.378Z,2.50
2017-12-26T08:18:00.855Z,2.83
2017-12-26T08:20:29.123Z,3.03
2017-12-26T08:22:56.623Z,2.43
2017-12-26T08:25:24.143Z,2.90
2017-12-26T08:27:52.394Z,2.53
2017-12-26T08:30:19.870Z,2.67
2017-12-26T08:32:47.334Z,2.50
2017-12-26T08:35:14.802Z,4.87
2017-12-26T08:37:43.078Z,2.47
2017-12-26T08:40:11.345Z,2.23
2017-12-26T08:42:38.821Z,2.47
2017-12-26T08:45:07.088Z,2.10
2017-12-26T08:47:34.565Z,2.30
2017-12-26T08:50:02.082Z,3.50
2017-12-26T08:52:29.618Z,3.20
2017-12-26T08:54:57.094Z,2.80
2017-12-26T08:57:24.627Z,2.93
2017-12-26T08:59:52.271Z,3.27
2017-12-26T09:02:20.504Z,3.17
2017-12-26T09:04:48.168Z,2.57
2017-12-26T09:07:15.646Z,7.23
2017-12-26T09:09:44.175Z,5.07
2017-12-26T09:12:11.659Z,5.63
2017-12-26T09:14:39.138Z,6.30
2017-12-26T09:17:07.241Z,3.93
2017-12-26T09:19:34.737Z,5.00
2017-12-26T09:22:02.783Z,6.80
2017-12-26T09:24:30.266Z,8.50
2017-12-26T09:26:57.746Z,7.33
2017-12-26T09:29:25.203Z,4.87
2017-12-26T09:31:52.679Z,4.07
2017-12-26T09:34:20.144Z,5.30
2017-12-26T09:36:48.413Z,4.77
2017-12-26T09:39:16.649Z,5.17
2017-12-26T09:41:44.153Z,6.70
2017-12-26T09:44:11.647Z,3.70
2017-12-26T09:46:39.146Z,5.30
2017-12-26T09:49:06.653Z,6.83
2017-12-26T09:51:34.160Z,4.60
2017-12-26T09:54:01.630Z,4.30
2017-12-26T09:56:29.098Z,4.33
2017-12-26T09:58:56.599Z,4.50
2017-12-26T10:01:24.100Z,4.20
2017-12-26T10:03:51.605Z,3.50
2017-12-26T10:06:19.850Z,5.13
2017-12-26T10:08:47.334Z,5.13
2017-12-26T10:11:14.822Z,5.50
2017-12-26T10:13:42.328Z,4.30
2017-12-26T10:16:10.567Z,3.97
2017-12-26T10:18:38.042Z,5.10
2017-12-26T10:21:05.567Z,5.37
2017-12-26T10:23:33.048Z,4.47
2017-12-26T10:26:00.564Z,5.53
2017-12-26T10:28:28.832Z,6.33
2017-12-26T10:30:57.119Z,3.80
2017-12-26T10:33:24.632Z,5.43
2017-12-26T10:35:52.111Z,3.87
2017-12-26T10:38:19.626Z,4.00
2017-12-26T10:40:47.119Z,3.53
2017-12-26T10:43:14.617Z,3.13
2017-12-26T10:45:42.115Z,2.90
2017-12-26T10:48:09.624Z,3.20
2017-12-26T10:50:38.004Z,3.70
2017-12-26T10:53:06.255Z,2.47
2017-12-26T10:55:33.799Z,2.90
2017-12-26T10:58:01.271Z,3.23
2017-12-26T11:00:28.770Z,4.90
2017-12-26T11:02:56.250Z,1.93
2017-12-26T11:05:23.728Z,4.60
2017-12-26T11:07:51.224Z,3.23
2017-12-26T11:10:19.503Z,2.60
2017-12-26T11:12:47.778Z,3.23
2017-12-26T11:15:15.279Z,4.00
2017-12-26T11:17:42.796Z,5.40
2017-12-26T11:20:10.259Z,3.30
2017-12-26T11:22:38.523Z,5.20
2017-12-26T11:25:06.789Z,6.20
2017-12-26T11:27:34.287Z,11.40
2017-12-26T11:30:02.520Z,7.17
2017-12-26T11:32:30.063Z,3.20
2017-12-26T11:34:57.557Z,3.30
2017-12-26T11:37:25.064Z,4.63
2017-12-26T11:39:52.555Z,3.40
2017-12-26T11:42:20.024Z,7.27
2017-12-26T11:44:47.607Z,5.60
2017-12-26T11:47:15.877Z,2.47
2017-12-26T11:49:43.367Z,4.77
2017-12-26T11:52:18.620Z,6.00
2017-12-26T11:54:47.040Z,3.23
2017-12-26T11:57:14.547Z,7.60
2017-12-26T11:59:42.039Z,5.57
2017-12-26T12:02:11.107Z,5.00
2017-12-26T12:04:39.458Z,3.77
2017-12-26T12:07:07.701Z,4.87
2017-12-26T12:09:36.133Z,4.97
2017-12-26T12:12:03.603Z,3.50
2017-12-26T12:14:31.098Z,4.13
2017-12-26T12:16:58.597Z,2.60
2017-12-26T12:19:26.839Z,4.70
2017-12-26T12:21:54.352Z,5.50
2017-12-26T12:24:21.829Z,3.87
2017-12-26T12:26:49.321Z,4.30
2017-12-26T12:29:16.818Z,3.17
2017-12-26T12:31:45.081Z,9.50
2017-12-26T12:34:13.320Z,3.37
2017-12-26T12:36:40.828Z,4.10
2017-12-26T12:39:08.320Z,4.80
2017-12-26T12:41:35.784Z,8.73
2017-12-26T12:44:03.268Z,6.30
2017-12-26T12:46:30.759Z,4.07
2017-12-26T12:48:59.015Z,2.90
2017-12-26T12:51:26.491Z,4.47
2017-12-26T12:53:54.967Z,7.37
2017-12-26T12:56:22.431Z,3.53
2017-12-26T12:58:50.711Z,3.30
2017-12-26T13:01:18.419Z,4.83
2017-12-26T13:03:45.894Z,3.50
2017-12-26T13:06:13.429Z,4.20
2017-12-26T13:08:40.914Z,3.33
2017-12-26T13:11:08.389Z,3.60
2017-12-26T13:13:35.873Z,3.40
2017-12-26T13:16:04.116Z,3.97
2017-12-26T13:18:31.599Z,5.63
2017-12-26T13:20:59.092Z,11.00
2017-12-26T13:23:26.554Z,3.27
2017-12-26T13:25:54.075Z,2.80
2017-12-26T13:28:22.643Z,3.40
2017-12-26T13:30:50.299Z,3.17
2017-12-26T13:33:17.766Z,3.17
2017-12-26T13:35:45.258Z,2.80
2017-12-26T13:38:12.749Z,3.00
2017-12-26T13:40:40.331Z,2.70
2017-12-26T13:43:07.803Z,4.20
2017-12-26T13:45:35.291Z,3.23
2017-12-26T13:48:03.523Z,2.33
2017-12-26T13:50:31.003Z,7.80
2017-12-26T13:52:58.588Z,3.23
2017-12-26T13:55:26.053Z,3.47
2017-12-26T13:57:53.553Z,3.23
2017-12-26T14:00:21.025Z,3.03
2017-12-26T14:02:48.645Z,2.80
2017-12-26T14:05:16.158Z,4.73
2017-12-26T14:07:44.395Z,5.10
2017-12-26T14:10:11.972Z,2.90
2017-12-26T14:12:39.450Z,6.00
2017-12-26T14:15:06.981Z,2.63
2017-12-26T14:17:51.666Z,3.20
2017-12-26T14:20:26.731Z,8.10
2017-12-26T14:23:12.626Z,4.90
2017-12-26T14:25:49.494Z,3.40
2017-12-26T14:28:29.741Z,6.60
2017-12-26T14:31:04.232Z,7.33
2017-12-26T14:33:42.731Z,5.50
2017-12-26T14:36:24.175Z,12.50
2017-12-26T14:41:49.629Z,7.47
2017-12-26T14:44:26.615Z,11.83
2017-12-26T14:47:04.635Z,3.90
2017-12-26T14:49:36.202Z,3.43
2017-12-26T14:52:11.368Z,3.20
2017-12-26T14:54:41.758Z,2.50
2017-12-26T14:57:14.621Z,7.90
2017-12-26T14:59:53.105Z,8.67
2017-12-26T15:05:22.461Z,11.37
2017-12-26T15:07:55.141Z,3.33
2017-12-26T15:10:36.424Z,2.83
2017-12-26T15:13:11.784Z,9.20
2017-12-26T15:15:46.905Z,3.37
2017-12-26T15:18:20.100Z,4.50
2017-12-26T15:20:52.572Z,2.97
2017-12-26T15:23:27.979Z,6.53
2017-12-26T15:26:00.493Z,3.30
2017-12-26T15:28:34.165Z,2.40
2017-12-26T15:31:05.866Z,4.50
2017-12-26T15:33:36.591Z,3.20
2017-12-26T15:36:15.064Z,5.80
2017-12-26T15:38:52.360Z,4.60
2017-12-26T15:41:28.923Z,4.10
2017-12-26T15:44:09.645Z,6.97
2017-12-26T15:46:44.268Z,3.80
2017-12-26T15:49:18.530Z,5.63
2017-12-26T15:51:56.548Z,3.13
2017-12-26T15:54:29.934Z,6.70
2017-12-26T15:57:00.511Z,5.30
2017-12-26T15:59:32.950Z,6.43
2017-12-26T16:02:04.749Z,3.47
2017-12-26T16:04:35.649Z,5.83
2017-12-26T16:07:08.622Z,4.57
2017-12-26T16:09:41.859Z,11.37
2017-12-26T16:12:13.571Z,5.73
2017-12-26T16:14:46.310Z,7.33
2017-12-26T16:17:18.991Z,4.30
2017-12-26T16:19:52.042Z,5.20
2017-12-26T16:22:23.431Z,4.50
2017-12-26T16:24:54.367Z,3.07
2017-12-26T16:27:28.031Z,3.50
2017-12-26T16:30:04.496Z,6.60
2017-12-26T16:32:41.595Z,7.97
2017-12-26T16:35:16.662Z,4.97
2017-12-26T16:37:54.204Z,5.53
2017-12-26T16:40:26.460Z,3.53
2017-12-26T16:42:58.527Z,6.23
2017-12-26T16:45:31.614Z,7.30
2017-12-26T16:48:05.490Z,6.83
2017-12-26T16:50:45.440Z,6.83
2017-12-26T16:53:20.742Z,5.93
2017-12-26T16:58:49.323Z,7.20
2017-12-26T17:01:32.985Z,5.30
2017-12-26T17:04:15.259Z,7.07
2017-12-26T17:06:50.601Z,10.27
2017-12-26T17:09:29.603Z,3.50
2017-12-26T17:12:08.589Z,4.40
2017-12-26T17:14:41.168Z,2.93
2017-12-26T17:17:16.715Z,4.00
2017-12-26T17:19:52.431Z,7.10
2017-12-26T17:22:24.365Z,9.43
2017-12-26T17:24:59.333Z,3.07
2017-12-26T17:30:19.924Z,17.17
2017-12-26T17:32:52.795Z,5.20
2017-12-26T17:35:29.543Z,5.80
2017-12-26T17:38:05.293Z,8.33
2017-12-26T17:40:41.660Z,4.53
2017-12-26T17:43:15.210Z,5.10
2017-12-26T17:45:46.452Z,5.40
2017-12-26T17:48:24.412Z,5.90
2017-12-26T17:51:00.985Z,3.17
2017-12-26T17:53:53.482Z,9.40
2017-12-26T17:56:35.992Z,5.30
2017-12-26T17:59:12.761Z,8.53
2017-12-26T18:01:48.717Z,4.23
2017-12-26T18:04:24.219Z,8.20
2017-12-26T18:07:04.886Z,9.50
2017-12-26T18:09:40.333Z,4.40
2017-12-26T18:12:11.625Z,4.10
2017-12-26T18:14:45.312Z,11.80
2017-12-26T18:17:25.897Z,5.60
2017-12-26T18:23:14.673Z,5.47
2017-12-26T18:31:28.740Z,8.10
2017-12-26T18:34:07.164Z,3.67
2017-12-26T18:36:35.487Z,3.67
2017-12-26T18:39:03.769Z,3.93
2017-12-26T18:41:31.231Z,3.97
2017-12-26T18:43:58.694Z,6.80
2017-12-26T18:46:26.581Z,4.03
2017-12-26T18:48:54.070Z,5.13
2017-12-26T18:51:21.553Z,5.60
2017-12-26T18:53:49.018Z,8.03
2017-12-26T18:56:16.478Z,3.63
2017-12-26T18:58:44.023Z,4.87
2017-12-26T19:01:11.494Z,6.67
2017-12-26T19:03:38.976Z,3.57
2017-12-26T19:06:06.545Z,3.93
2017-12-26T19:08:35.553Z,12.60
2017-12-26T19:11:03.128Z,8.63
2017-12-26T19:13:31.346Z,3.83
2017-12-26T19:15:58.864Z,4.60
2017-12-26T19:18:27.319Z,5.63
2017-12-26T19:20:54.782Z,3.90
2017-12-26T19:23:22.258Z,6.27
2017-12-26T19:25:50.541Z,8.63
2017-12-26T19:28:18.029Z,3.70
2017-12-26T19:30:45.549Z,3.83
2017-12-26T19:33:13.817Z,3.57
2017-12-26T19:35:41.290Z,3.27
2017-12-26T19:38:09.522Z,3.37
2017-12-26T19:40:37.012Z,7.73
2017-12-26T19:43:04.729Z,5.70
2017-12-26T19:45:32.187Z,5.70
2017-12-26T19:47:59.664Z,2.57
2017-12-26T19:50:27.197Z,3.43
2017-12-26T19:52:54.669Z,2.87
2017-12-26T19:55:22.177Z,7.70
2017-12-26T19:57:49.685Z,4.80
2017-12-26T20:00:17.141Z,5.73
2017-12-26T20:02:45.476Z,4.70
2017-12-26T20:05:13.710Z,6.10
2017-12-26T20:07:41.208Z,4.07
2017-12-26T20:10:09.443Z,3.63
2017-12-26T20:12:37.004Z,4.27
2017-12-26T20:15:04.461Z,6.70
2017-12-26T20:17:31.947Z,14.30
2017-12-26T20:19:59.414Z,6.73
2017-12-26T20:22:26.933Z,12.10
2017-12-26T20:24:54.412Z,2.90
2017-12-26T20:27:21.885Z,8.33
2017-12-26T20:29:55.019Z,4.63
2017-12-26T20:32:22.591Z,5.60
2017-12-26T20:34:50.246Z,6.90
2017-12-26T20:37:17.755Z,3.27
2017-12-26T20:39:45.266Z,5.23
2017-12-26T20:42:12.773Z,4.20
2017-12-26T20:44:40.253Z,2.63
2017-12-26T20:47:07.716Z,5.77
2017-12-26T20:49:35.249Z,15.23
2017-12-26T20:52:03.485Z,5.87
2017-12-26T20:54:30.977Z,3.93
2017-12-26T20:56:58.450Z,7.97
2017-12-26T20:59:25.920Z,6.07
2017-12-26T21:01:54.146Z,6.40
2017-12-26T21:04:21.602Z,5.40
2017-12-26T21:06:49.075Z,5.83
2017-12-26T21:09:16.680Z,10.73
2017-12-26T21:11:44.974Z,9.03
2017-12-26T21:14:12.446Z,7.70
2017-12-26T21:16:39.993Z,5.30
2017-12-26T21:19:07.495Z,3.73
2017-12-26T21:21:35.063Z,7.23
2017-12-26T21:24:03.327Z,5.27
2017-12-26T21:26:30.778Z,8.33
2017-12-26T21:28:58.260Z,4.20
2017-12-26T21:31:27.225Z,9.00
2017-12-26T21:33:54.706Z,5.10
2017-12-26T21:36:22.166Z,2.80
2017-12-26T21:38:50.630Z,3.50
2017-12-26T21:41:18.334Z,9.17
2017-12-26T21:43:46.582Z,5.20
2017-12-26T21:46:14.061Z,3.53
2017-12-26T21:48:42.302Z,8.67
2017-12-26T21:51:09.766Z,6.07
2017-12-26T21:53:37.240Z,7.43
2017-12-26T21:56:05.586Z,4.10
2017-12-26T21:58:33.066Z,6.33
2017-12-26T22:01:00.623Z,4.13
2017-12-26T22:03:28.316Z,5.80
2017-12-26T22:05:56.564Z,9.03
2017-12-26T22:08:24.276Z,3.20
2017-12-26T22:10:51.968Z,5.07
2017-12-26T22:13:19.571Z,7.23
2017-12-26T22:15:47.062Z,10.80
2017-12-26T22:18:15.350Z,6.97
2017-12-26T22:20:42.923Z,2.10
2017-12-26T22:23:10.393Z,3.53
2017-12-26T22:25:37.872Z,7.00
2017-12-26T22:28:05.596Z,10.10
2017-12-26T22:30:33.078Z,4.70
2017-12-26T22:33:00.565Z,6.10
2017-12-26T22:35:28.037Z,2.47
2017-12-26T22:37:56.294Z,10.53
2017-12-26T22:40:24.534Z,7.60
2017-12-26T22:42:52.008Z,5.47
2017-12-26T22:45:19.476Z,4.17
2017-12-26T22:47:47.198Z,3.47
2017-12-26T22:50:14.746Z,2.57
2017-12-26T22:52:42.968Z,3.80
2017-12-26T22:55:10.484Z,7.03
2017-12-26T22:57:38.742Z,13.17
2017-12-26T23:00:06.993Z,10.73
2017-12-26T23:02:34.449Z,9.20
2017-12-26T23:05:01.948Z,10.20
2017-12-26T23:07:30.206Z,9.90
2017-12-26T23:09:57.781Z,3.40
2017-12-26T23:12:26.019Z,8.23
2017-12-26T23:14:59.239Z,4.90
2017-12-26T23:17:32.479Z,3.53
2017-12-26T23:20:05.735Z,2.37
2017-12-26T23:22:33.990Z,2.50
2017-12-26T23:25:07.271Z,7.33
2017-12-26T23:27:40.524Z,3.73
2017-12-26T23:30:13.751Z,6.83
2017-12-26T23:32:46.982Z,8.00
2017-12-26T23:35:20.838Z,3.17
2017-12-26T23:37:53.917Z,4.10
2017-12-26T23:40:27.021Z,4.63
2017-12-26T23:43:00.213Z,4.40
2017-12-26T23:45:33.429Z,8.80
2017-12-26T23:48:06.697Z,3.87
2017-12-26T23:50:39.802Z,7.70
2017-12-26T23:53:13.115Z,5.97
2017-12-26T23:55:46.387Z,2.50
2017-12-26T23:58:19.717Z,4.13
